sensor_id;sensor_type;location;lat;lon;timestamp;pressure;altitude;pressure_sealevel;temperature;humidity
74973;BME280;63529;56.320;43.990;2023-04-01T00:00:55;98682.47;;;3.44;70.94
74973;BME280;63529;56.320;43.990;2023-04-01T00:03:22;98682.00;;;3.47;70.94
74973;BME280;63529;56.320;43.990;2023-04-01T00:05:49;98682.22;;;3.45;71.32
74973;BME280;63529;56.320;43.990;2023-04-01T00:08:15;98683.03;;;3.46;71.31
74973;BME280;63529;56.320;43.990;2023-04-01T00:10:42;98685.44;;;3.47;71.34
74973;BME280;63529;56.320;43.990;2023-04-01T00:13:08;98685.44;;;3.47;71.16
74973;BME280;63529;56.320;43.990;2023-04-01T00:15:34;98675.44;;;3.49;71.24
74973;BME280;63529;56.320;43.990;2023-04-01T00:18:00;98677.59;;;3.52;71.13
74973;BME280;63529;56.320;43.990;2023-04-01T00:20:27;98673.34;;;3.51;71.29
74973;BME280;63529;56.320;43.990;2023-04-01T00:22:52;98680.44;;;3.51;71.15
74973;BME280;63529;56.320;43.990;2023-04-01T00:25:18;98667.25;;;3.51;71.47
74973;BME280;63529;56.320;43.990;2023-04-01T00:27:44;98669.09;;;3.50;71.39
74973;BME280;63529;56.320;43.990;2023-04-01T00:30:10;98661.19;;;3.50;71.52
74973;BME280;63529;56.320;43.990;2023-04-01T00:32:37;98666.47;;;3.50;71.57
74973;BME280;63529;56.320;43.990;2023-04-01T00:35:03;98663.03;;;3.50;71.70
74973;BME280;63529;56.320;43.990;2023-04-01T00:37:29;98657.50;;;3.51;71.72
74973;BME280;63529;56.320;43.990;2023-04-01T00:39:56;98658.56;;;3.50;71.69
74973;BME280;63529;56.320;43.990;2023-04-01T00:42:23;98662.56;;;3.53;71.98
74973;BME280;63529;56.320;43.990;2023-04-01T00:44:54;98659.66;;;3.54;71.57
74973;BME280;63529;56.320;43.990;2023-04-01T00:47:21;98658.09;;;3.53;71.75
74973;BME280;63529;56.320;43.990;2023-04-01T00:49:50;98668.94;;;3.57;71.61
74973;BME280;63529;56.320;43.990;2023-04-01T00:52:23;98658.63;;;3.56;71.70
74973;BME280;63529;56.320;43.990;2023-04-01T00:54:55;98657.56;;;3.57;71.95
74973;BME280;63529;56.320;43.990;2023-04-01T00:57:28;98650.72;;;3.56;71.79
74973;BME280;63529;56.320;43.990;2023-04-01T00:59:56;98643.84;;;3.54;71.99
74973;BME280;63529;56.320;43.990;2023-04-01T01:02:23;98648.06;;;3.56;72.14
74973;BME280;63529;56.320;43.990;2023-04-01T01:04:49;98653.88;;;3.58;72.04
74973;BME280;63529;56.320;43.990;2023-04-01T01:10:19;98650.25;;;3.59;72.12
74973;BME280;63529;56.320;43.990;2023-04-01T01:13:16;98651.81;;;3.60;72.16
74973;BME280;63529;56.320;43.990;2023-04-01T01:31:36;98641.47;;;3.53;72.53
74973;BME280;63529;56.320;43.990;2023-04-01T01:37:13;98641.69;;;3.51;72.71
74973;BME280;63529;56.320;43.990;2023-04-01T01:39:43;98644.03;;;3.48;73.00
74973;BME280;63529;56.320;43.990;2023-04-01T01:42:13;98639.53;;;3.48;72.95
74973;BME280;63529;56.320;43.990;2023-04-01T01:44:39;98641.13;;;3.49;73.14
74973;BME280;63529;56.320;43.990;2023-04-01T01:47:07;98646.13;;;3.46;73.31
74973;BME280;63529;56.320;43.990;2023-04-01T01:49:34;98651.16;;;3.47;73.09
74973;BME280;63529;56.320;43.990;2023-04-01T01:52:02;98648.75;;;3.46;73.34
74973;BME280;63529;56.320;43.990;2023-04-01T01:54:29;98652.19;;;3.46;73.46
74973;BME280;63529;56.320;43.990;2023-04-01T01:57:07;98650.88;;;3.49;73.41
74973;BME280;63529;56.320;43.990;2023-04-01T01:59:37;98649.03;;;3.49;73.67
74973;BME280;63529;56.320;43.990;2023-04-01T02:02:05;98641.94;;;3.50;73.46
74973;BME280;63529;56.320;43.990;2023-04-01T02:04:44;98637.69;;;3.49;73.80
74973;BME280;63529;56.320;43.990;2023-04-01T02:07:19;98644.31;;;3.51;73.60
74973;BME280;63529;56.320;43.990;2023-04-01T02:09:48;98632.75;;;3.52;74.00
74973;BME280;63529;56.320;43.990;2023-04-01T02:12:16;98641.22;;;3.54;73.64
74973;BME280;63529;56.320;43.990;2023-04-01T02:15:15;98637.78;;;3.54;73.75
74973;BME280;63529;56.320;43.990;2023-04-01T02:17:43;98631.69;;;3.53;73.98
74973;BME280;63529;56.320;43.990;2023-04-01T02:20:18;98631.69;;;3.53;73.97
74973;BME280;63529;56.320;43.990;2023-04-01T02:22:49;98627.47;;;3.52;73.88
74973;BME280;63529;56.320;43.990;2023-04-01T02:25:22;98626.97;;;3.56;73.94
74973;BME280;63529;56.320;43.990;2023-04-01T02:27:51;98627.50;;;3.58;73.99
74973;BME280;63529;56.320;43.990;2023-04-01T02:30:18;98638.84;;;3.58;73.89
74973;BME280;63529;56.320;43.990;2023-04-01T02:32:46;98634.16;;;3.60;74.04
74973;BME280;63529;56.320;43.990;2023-04-01T02:35:14;98631.81;;;3.64;73.85
74973;BME280;63529;56.320;43.990;2023-04-01T02:37:42;98641.56;;;3.63;73.80
74973;BME280;63529;56.320;43.990;2023-04-01T02:40:11;98644.78;;;3.65;73.70
74973;BME280;63529;56.320;43.990;2023-04-01T02:42:38;98641.09;;;3.66;73.83
74973;BME280;63529;56.320;43.990;2023-04-01T02:45:05;98641.63;;;3.68;73.63
74973;BME280;63529;56.320;43.990;2023-04-01T02:47:31;98640.59;;;3.69;73.69
74973;BME280;63529;56.320;43.990;2023-04-01T02:49:57;98630.03;;;3.69;73.66
74973;BME280;63529;56.320;43.990;2023-04-01T02:52:26;98636.66;;;3.72;73.61
74973;BME280;63529;56.320;43.990;2023-04-01T02:54:52;98643.53;;;3.73;73.59
74973;BME280;63529;56.320;43.990;2023-04-01T02:57:18;98641.94;;;3.72;73.63
74973;BME280;63529;56.320;43.990;2023-04-01T02:59:44;98632.19;;;3.72;73.67
74973;BME280;63529;56.320;43.990;2023-04-01T03:02:10;98634.56;;;3.74;73.57
74973;BME280;63529;56.320;43.990;2023-04-01T03:04:36;98636.16;;;3.75;73.54
74973;BME280;63529;56.320;43.990;2023-04-01T03:07:02;98640.41;;;3.76;73.49
74973;BME280;63529;56.320;43.990;2023-04-01T03:09:28;98629.59;;;3.77;73.30
74973;BME280;63529;56.320;43.990;2023-04-01T03:11:54;98633.84;;;3.78;73.30
74973;BME280;63529;56.320;43.990;2023-04-01T03:14:20;98631.75;;;3.80;73.36
74973;BME280;63529;56.320;43.990;2023-04-01T03:16:46;98636.50;;;3.84;73.19
74973;BME280;63529;56.320;43.990;2023-04-01T03:19:12;98631.00;;;3.85;73.18
74973;BME280;63529;56.320;43.990;2023-04-01T03:21:38;98634.44;;;3.86;73.07
74973;BME280;63529;56.320;43.990;2023-04-01T03:24:04;98629.97;;;3.86;73.03
74973;BME280;63529;56.320;43.990;2023-04-01T03:26:30;98625.22;;;3.88;73.06
74973;BME280;63529;56.320;43.990;2023-04-01T03:28:57;98626.28;;;3.87;72.87
74973;BME280;63529;56.320;43.990;2023-04-01T03:31:23;98630.75;;;3.87;72.80
74973;BME280;63529;56.320;43.990;2023-04-01T03:33:52;98633.13;;;3.88;72.89
74973;BME280;63529;56.320;43.990;2023-04-01T03:36:18;98629.41;;;3.84;72.93
74973;BME280;63529;56.320;43.990;2023-04-01T03:38:44;98634.13;;;3.82;72.82
74973;BME280;63529;56.320;43.990;2023-04-01T03:41:15;98638.63;;;3.81;72.75
74973;BME280;63529;56.320;43.990;2023-04-01T03:43:43;98637.28;;;3.79;72.96
74973;BME280;63529;56.320;43.990;2023-04-01T03:46:10;98633.84;;;3.78;72.86
74973;BME280;63529;56.320;43.990;2023-04-01T03:48:37;98637.81;;;3.81;73.05
74973;BME280;63529;56.320;43.990;2023-04-01T03:51:07;98642.03;;;3.82;73.21
74973;BME280;63529;56.320;43.990;2023-04-01T03:53:33;98635.72;;;3.83;73.13
74973;BME280;63529;56.320;43.990;2023-04-01T03:56:08;98641.31;;;3.87;73.11
74973;BME280;63529;56.320;43.990;2023-04-01T03:58:35;98637.63;;;3.88;72.96
74973;BME280;63529;56.320;43.990;2023-04-01T04:01:03;98644.03;;;3.92;72.99
74973;BME280;63529;56.320;43.990;2023-04-01T04:03:30;98640.06;;;3.94;72.72
74973;BME280;63529;56.320;43.990;2023-04-01T04:05:57;98644.31;;;3.95;72.71
74973;BME280;63529;56.320;43.990;2023-04-01T04:08:22;98649.09;;;3.98;72.69
74973;BME280;63529;56.320;43.990;2023-04-01T04:10:55;98643.56;;;4.00;72.57
74973;BME280;63529;56.320;43.990;2023-04-01T04:13:21;98649.13;;;4.03;72.54
74973;BME280;63529;56.320;43.990;2023-04-01T04:15:55;98652.09;;;4.07;72.59
74973;BME280;63529;56.320;43.990;2023-04-01T04:18:20;98647.59;;;4.07;72.62
74973;BME280;63529;56.320;43.990;2023-04-01T04:20:47;98650.56;;;4.11;72.37
74973;BME280;63529;56.320;43.990;2023-04-01T04:23:17;98654.28;;;4.15;72.27
74973;BME280;63529;56.320;43.990;2023-04-01T04:26:16;98645.06;;;4.18;72.31
74973;BME280;63529;56.320;43.990;2023-04-01T04:28:46;98655.13;;;4.21;72.17
74973;BME280;63529;56.320;43.990;2023-04-01T04:31:19;98653.09;;;4.28;72.13
74973;BME280;63529;56.320;43.990;2023-04-01T04:33:46;98652.88;;;4.34;72.23
74973;BME280;63529;56.320;43.990;2023-04-01T04:36:12;98650.56;;;4.43;71.79
74973;BME280;63529;56.320;43.990;2023-04-01T04:38:38;98648.78;;;4.49;71.77
74973;BME280;63529;56.320;43.990;2023-04-01T04:41:09;98649.94;;;4.58;71.52
74973;BME280;63529;56.320;43.990;2023-04-01T04:43:35;98649.16;;;4.62;71.01
74973;BME280;63529;56.320;43.990;2023-04-01T04:46:08;98653.69;;;4.67;70.67
74973;BME280;63529;56.320;43.990;2023-04-01T04:48:35;98647.66;;;4.72;70.41
74973;BME280;63529;56.320;43.990;2023-04-01T04:51:01;98641.91;;;4.80;70.68
74973;BME280;63529;56.320;43.990;2023-04-01T04:53:27;98653.13;;;4.97;70.30
74973;BME280;63529;56.320;43.990;2023-04-01T04:55:53;98647.41;;;5.10;69.88
74973;BME280;63529;56.320;43.990;2023-04-01T04:58:39;98642.41;;;5.19;69.66
74973;BME280;63529;56.320;43.990;2023-04-01T05:01:11;98647.50;;;5.26;69.21
74973;BME280;63529;56.320;43.990;2023-04-01T05:03:39;98652.03;;;5.30;68.76
74973;BME280;63529;56.320;43.990;2023-04-01T05:06:06;98646.50;;;5.37;68.59
74973;BME280;63529;56.320;43.990;2023-04-01T05:08:33;98648.91;;;5.43;68.80
74973;BME280;63529;56.320;43.990;2023-04-01T05:11:01;98647.13;;;5.54;68.57
74973;BME280;63529;56.320;43.990;2023-04-01T05:13:28;98650.31;;;5.66;67.84
74973;BME280;63529;56.320;43.990;2023-04-01T05:15:55;98646.41;;;5.74;67.51
74973;BME280;63529;56.320;43.990;2023-04-01T05:18:21;98650.91;;;5.79;67.33
74973;BME280;63529;56.320;43.990;2023-04-01T05:20:49;98651.47;;;5.81;67.51
74973;BME280;63529;56.320;43.990;2023-04-01T05:23:16;98646.16;;;5.86;67.23
74973;BME280;63529;56.320;43.990;2023-04-01T05:25:43;98652.31;;;5.91;67.20
74973;BME280;63529;56.320;43.990;2023-04-01T05:28:10;98653.66;;;5.94;66.82
74973;BME280;63529;56.320;43.990;2023-04-01T05:30:36;98654.19;;;5.96;66.86
74973;BME280;63529;56.320;43.990;2023-04-01T05:33:22;98652.34;;;6.02;66.92
74973;BME280;63529;56.320;43.990;2023-04-01T05:35:48;98655.78;;;6.12;66.80
74973;BME280;63529;56.320;43.990;2023-04-01T05:38:14;98650.25;;;6.24;66.15
74973;BME280;63529;56.320;43.990;2023-04-01T05:40:40;98641.28;;;6.40;65.43
74973;BME280;63529;56.320;43.990;2023-04-01T05:43:06;98643.13;;;6.50;65.28
74973;BME280;63529;56.320;43.990;2023-04-01T05:45:32;98642.88;;;6.62;65.24
74973;BME280;63529;56.320;43.990;2023-04-01T05:48:13;98651.38;;;6.74;64.74
74973;BME280;63529;56.320;43.990;2023-04-01T05:50:40;98651.09;;;6.91;64.23
74973;BME280;63529;56.320;43.990;2023-04-01T05:53:08;98638.34;;;7.13;63.83
74973;BME280;63529;56.320;43.990;2023-04-01T05:55:35;98640.66;;;7.45;63.22
74973;BME280;63529;56.320;43.990;2023-04-01T05:58:02;98641.09;;;7.62;62.74
74973;BME280;63529;56.320;43.990;2023-04-01T06:00:29;98640.28;;;7.67;62.51
74973;BME280;63529;56.320;43.990;2023-04-01T06:03:00;98645.09;;;7.65;62.63
74973;BME280;63529;56.320;43.990;2023-04-01T06:05:30;98640.31;;;7.62;62.48
74973;BME280;63529;56.320;43.990;2023-04-01T06:08:05;98644.00;;;7.71;62.18
74973;BME280;63529;56.320;43.990;2023-04-01T06:14:22;98653.25;;;7.84;61.43
74973;BME280;63529;56.320;43.990;2023-04-01T06:26:11;98659.16;;;7.71;61.01
74973;BME280;63529;56.320;43.990;2023-04-01T06:29:15;98658.31;;;7.75;60.91
74973;BME280;63529;56.320;43.990;2023-04-01T06:35:02;98655.63;;;7.85;60.21
74973;BME280;63529;56.320;43.990;2023-04-01T06:43:15;98666.81;;;8.27;58.86
74973;BME280;63529;56.320;43.990;2023-04-01T06:46:09;98665.06;;;8.12;59.03
74973;BME280;63529;56.320;43.990;2023-04-01T06:52:28;98675.56;;;7.83;60.44
74973;BME280;63529;56.320;43.990;2023-04-01T06:55:52;98684.38;;;7.68;60.06
74973;BME280;63529;56.320;43.990;2023-04-01T06:58:42;98674.38;;;7.45;60.13
74973;BME280;63529;56.320;43.990;2023-04-01T07:01:14;98683.41;;;7.39;60.50
74973;BME280;63529;56.320;43.990;2023-04-01T07:06:54;98678.25;;;7.78;60.34
74973;BME280;63529;56.320;43.990;2023-04-01T07:09:28;98682.88;;;8.95;59.79
74973;BME280;63529;56.320;43.990;2023-04-01T07:15:25;98681.81;;;11.79;51.73
74973;BME280;63529;56.320;43.990;2023-04-01T07:17:56;98683.50;;;12.16;50.76
74973;BME280;63529;56.320;43.990;2023-04-01T07:20:42;98698.78;;;12.02;49.50
74973;BME280;63529;56.320;43.990;2023-04-01T07:23:21;98697.16;;;12.28;50.58
74973;BME280;63529;56.320;43.990;2023-04-01T07:26:19;98693.44;;;12.38;50.34
74973;BME280;63529;56.320;43.990;2023-04-01T07:28:53;98698.03;;;12.23;50.69
74973;BME280;63529;56.320;43.990;2023-04-01T07:34:28;98713.66;;;12.80;50.37
74973;BME280;63529;56.320;43.990;2023-04-01T07:37:12;98706.47;;;13.34;47.11
74973;BME280;63529;56.320;43.990;2023-04-01T07:40:00;98707.31;;;13.43;47.16
74973;BME280;63529;56.320;43.990;2023-04-01T07:56:24;98737.81;;;11.89;48.27
74973;BME280;63529;56.320;43.990;2023-04-01T07:59:16;98745.56;;;11.58;48.52
74973;BME280;63529;56.320;43.990;2023-04-01T08:02:29;98749.41;;;11.05;49.27
74973;BME280;63529;56.320;43.990;2023-04-01T08:08:11;98753.81;;;10.58;51.51
74973;BME280;63529;56.320;43.990;2023-04-01T08:14:33;98756.34;;;10.69;51.86
74973;BME280;63529;56.320;43.990;2023-04-01T08:20:37;98757.91;;;12.28;49.93
74973;BME280;63529;56.320;43.990;2023-04-01T08:23:17;98760.31;;;13.86;47.11
74973;BME280;63529;56.320;43.990;2023-04-01T08:25:51;98759.38;;;15.43;44.15
74973;BME280;63529;56.320;43.990;2023-04-01T08:30:55;98768.59;;;16.27;42.16
74973;BME280;63529;56.320;43.990;2023-04-01T08:33:30;98768.50;;;15.85;41.54
74973;BME280;63529;56.320;43.990;2023-04-01T08:36:29;98773.03;;;15.20;41.88
74973;BME280;63529;56.320;43.990;2023-04-01T08:39:16;98770.34;;;15.12;42.24
74973;BME280;63529;56.320;43.990;2023-04-01T08:56:14;98809.59;;;11.82;47.74
74973;BME280;63529;56.320;43.990;2023-04-01T08:59:26;98818.13;;;11.84;47.74
74973;BME280;63529;56.320;43.990;2023-04-01T09:01:58;98817.00;;;11.52;47.96
74973;BME280;63529;56.320;43.990;2023-04-01T09:14:26;98833.47;;;11.08;49.19
74973;BME280;63529;56.320;43.990;2023-04-01T09:20:23;98855.69;;;10.84;49.25
74973;BME280;63529;56.320;43.990;2023-04-01T09:23:15;98859.25;;;10.56;49.64
74973;BME280;63529;56.320;43.990;2023-04-01T09:26:11;98850.75;;;10.30;50.06
74973;BME280;63529;56.320;43.990;2023-04-01T09:35:14;98869.38;;;9.77;51.42
74973;BME280;63529;56.320;43.990;2023-04-01T09:50:03;98894.28;;;10.20;52.66
74973;BME280;63529;56.320;43.990;2023-04-01T09:52:52;98876.84;;;11.19;51.05
74973;BME280;63529;56.320;43.990;2023-04-01T10:18:50;98911.16;;;9.52;54.04
74973;BME280;63529;56.320;43.990;2023-04-01T10:36:54;98922.03;;;9.90;52.17
74973;BME280;63529;56.320;43.990;2023-04-01T10:51:20;98956.28;;;10.89;50.58
74973;BME280;63529;56.320;43.990;2023-04-01T11:00:27;98967.28;;;11.06;48.58
74973;BME280;63529;56.320;43.990;2023-04-01T11:03:34;98982.00;;;10.80;49.19
74973;BME280;63529;56.320;43.990;2023-04-01T11:12:51;98985.69;;;10.60;50.63
74973;BME280;63529;56.320;43.990;2023-04-01T11:29:12;99012.44;;;9.37;53.54
74973;BME280;63529;56.320;43.990;2023-04-01T11:32:02;99018.63;;;9.22;53.68
74973;BME280;63529;56.320;43.990;2023-04-01T11:40:20;99023.72;;;9.68;53.92
74973;BME280;63529;56.320;43.990;2023-04-01T11:43:25;99022.25;;;10.30;52.47
74973;BME280;63529;56.320;43.990;2023-04-01T11:46:21;99018.50;;;10.60;51.76
74973;BME280;63529;56.320;43.990;2023-04-01T11:49:07;99025.28;;;10.77;51.36
74973;BME280;63529;56.320;43.990;2023-04-01T11:54:52;99022.84;;;11.04;50.63
74973;BME280;63529;56.320;43.990;2023-04-01T12:05:51;99031.97;;;11.46;49.23
74973;BME280;63529;56.320;43.990;2023-04-01T12:14:36;99037.28;;;11.03;49.25
74973;BME280;63529;56.320;43.990;2023-04-01T12:20:33;99047.84;;;11.13;49.07
74973;BME280;63529;56.320;43.990;2023-04-01T12:23:05;99051.03;;;10.92;48.86
74973;BME280;63529;56.320;43.990;2023-04-01T12:31:18;99046.16;;;10.01;49.56
74973;BME280;63529;56.320;43.990;2023-04-01T12:37:03;99069.34;;;9.57;50.45
74973;BME280;63529;56.320;43.990;2023-04-01T12:39:47;99069.09;;;9.53;51.02
74973;BME280;63529;56.320;43.990;2023-04-01T12:47:50;99082.66;;;9.62;51.44
74973;BME280;63529;56.320;43.990;2023-04-01T12:56:02;99094.75;;;9.88;50.67
74973;BME280;63529;56.320;43.990;2023-04-01T13:10:24;99106.38;;;10.13;50.10
74973;BME280;63529;56.320;43.990;2023-04-01T13:13:08;99108.22;;;10.12;49.90
74973;BME280;63529;56.320;43.990;2023-04-01T13:15:41;99112.78;;;10.12;49.82
74973;BME280;63529;56.320;43.990;2023-04-01T13:21:16;99120.78;;;10.06;49.98
74973;BME280;63529;56.320;43.990;2023-04-01T13:29:23;99142.22;;;9.86;50.32
74973;BME280;63529;56.320;43.990;2023-04-01T13:42:51;99161.56;;;9.32;51.02
74973;BME280;63529;56.320;43.990;2023-04-01T13:45:23;99161.06;;;9.25;51.06
74973;BME280;63529;56.320;43.990;2023-04-01T14:07:19;99196.78;;;8.63;52.20
74973;BME280;63529;56.320;43.990;2023-04-01T14:13:18;99212.44;;;8.49;53.00
74973;BME280;63529;56.320;43.990;2023-04-01T14:15:36;99204.72;;;8.42;52.93
74973;BME280;63529;56.320;43.990;2023-04-01T14:35:37;99238.41;;;8.32;53.97
74973;BME280;63529;56.320;43.990;2023-04-01T14:38:35;99241.06;;;8.27;54.02
74973;BME280;63529;56.320;43.990;2023-04-01T14:41:28;99238.91;;;8.19;54.10
74973;BME280;63529;56.320;43.990;2023-04-01T14:44:22;99247.13;;;8.12;54.45
74973;BME280;63529;56.320;43.990;2023-04-01T14:49:51;99263.28;;;8.00;54.46
74973;BME280;63529;56.320;43.990;2023-04-01T14:52:27;99263.25;;;7.95;54.78
74973;BME280;63529;56.320;43.990;2023-04-01T14:54:54;99263.47;;;7.88;54.84
74973;BME280;63529;56.320;43.990;2023-04-01T14:57:29;99275.44;;;7.86;54.86
74973;BME280;63529;56.320;43.990;2023-04-01T15:00:14;99274.59;;;7.80;55.04
74973;BME280;63529;56.320;43.990;2023-04-01T15:03:01;99280.94;;;7.74;55.14
74973;BME280;63529;56.320;43.990;2023-04-01T15:05:43;99284.09;;;7.66;55.39
74973;BME280;63529;56.320;43.990;2023-04-01T15:16:59;99298.78;;;7.42;55.74
74973;BME280;63529;56.320;43.990;2023-04-01T15:22:37;99300.06;;;7.34;55.94
74973;BME280;63529;56.320;43.990;2023-04-01T15:28:16;99305.09;;;7.30;56.09
74973;BME280;63529;56.320;43.990;2023-04-01T15:39:19;99334.22;;;7.25;56.52
74973;BME280;63529;56.320;43.990;2023-04-01T15:47:02;99348.78;;;7.18;56.83
74973;BME280;63529;56.320;43.990;2023-04-01T15:49:40;99361.47;;;7.16;56.65
74973;BME280;63529;56.320;43.990;2023-04-01T16:11:37;99393.84;;;6.91;58.29
74973;BME280;63529;56.320;43.990;2023-04-01T16:22:19;99402.97;;;6.78;59.07
74973;BME280;63529;56.320;43.990;2023-04-01T16:27:44;99383.00;;;6.70;59.18
74973;BME280;63529;56.320;43.990;2023-04-01T16:30:35;99380.31;;;6.65;59.43
74973;BME280;63529;56.320;43.990;2023-04-01T16:33:11;99389.88;;;6.66;59.58
74973;BME280;63529;56.320;43.990;2023-04-01T16:41:14;99394.59;;;6.64;60.10
74973;BME280;63529;56.320;43.990;2023-04-01T16:43:48;99393.00;;;6.63;59.77
74973;BME280;63529;56.320;43.990;2023-04-01T16:46:30;99395.91;;;6.62;60.37
74973;BME280;63529;56.320;43.990;2023-04-01T16:51:45;99400.06;;;6.58;60.29
74973;BME280;63529;56.320;43.990;2023-04-01T16:56:55;99398.72;;;6.55;60.37
74973;BME280;63529;56.320;43.990;2023-04-01T16:59:33;99405.88;;;6.55;60.62
74973;BME280;63529;56.320;43.990;2023-04-01T17:05:08;99394.97;;;6.51;60.68
74973;BME280;63529;56.320;43.990;2023-04-01T17:07:57;99389.84;;;6.44;60.75
74973;BME280;63529;56.320;43.990;2023-04-01T17:15:50;99402.91;;;6.12;60.96
74973;BME280;63529;56.320;43.990;2023-04-01T17:21:11;99403.50;;;5.81;61.92
74973;BME280;63529;56.320;43.990;2023-04-01T17:29:19;99406.81;;;5.42;63.14
74973;BME280;63529;56.320;43.990;2023-04-01T17:37:28;99405.09;;;5.20;63.61
74973;BME280;63529;56.320;43.990;2023-04-01T17:40:26;99406.63;;;5.15;63.85
74973;BME280;63529;56.320;43.990;2023-04-01T17:45:54;99393.75;;;5.07;64.07
74973;BME280;63529;56.320;43.990;2023-04-01T17:48:49;99396.88;;;5.04;64.20
74973;BME280;63529;56.320;43.990;2023-04-01T17:51:32;99393.69;;;5.02;64.28
74973;BME280;63529;56.320;43.990;2023-04-01T17:57:23;99392.66;;;4.92;64.15
74973;BME280;63529;56.320;43.990;2023-04-01T17:59:41;99389.69;;;4.88;64.21
74973;BME280;63529;56.320;43.990;2023-04-01T18:02:48;99394.66;;;4.84;64.75
74973;BME280;63529;56.320;43.990;2023-04-01T18:05:22;99396.50;;;4.84;64.68
74973;BME280;63529;56.320;43.990;2023-04-01T18:27:39;99413.06;;;4.68;65.62
74973;BME280;63529;56.320;43.990;2023-04-01T18:30:12;99410.91;;;4.65;65.89
74973;BME280;63529;56.320;43.990;2023-04-01T18:35:45;99416.56;;;4.56;66.19
74973;BME280;63529;56.320;43.990;2023-04-01T18:38:30;99410.69;;;4.54;66.25
74973;BME280;63529;56.320;43.990;2023-04-01T18:41:38;99406.78;;;4.57;66.79
74973;BME280;63529;56.320;43.990;2023-04-01T18:52:17;99417.06;;;4.82;66.45
74973;BME280;63529;56.320;43.990;2023-04-01T18:57:46;99406.00;;;4.97;66.17
74973;BME280;63529;56.320;43.990;2023-04-01T19:00:14;99422.78;;;5.02;66.15
74973;BME280;63529;56.320;43.990;2023-04-01T19:02:50;99424.44;;;5.08;66.07
74973;BME280;63529;56.320;43.990;2023-04-01T19:05:31;99420.06;;;5.14;65.86
74973;BME280;63529;56.320;43.990;2023-04-01T19:08:27;99420.97;;;5.20;66.06
74973;BME280;63529;56.320;43.990;2023-04-01T19:16:46;99422.38;;;5.39;65.57
74973;BME280;63529;56.320;43.990;2023-04-01T19:24:51;99415.72;;;5.53;65.20
74973;BME280;63529;56.320;43.990;2023-04-01T19:27:29;99413.66;;;5.55;65.24
74973;BME280;63529;56.320;43.990;2023-04-01T19:46:20;99427.31;;;5.64;65.14
74973;BME280;63529;56.320;43.990;2023-04-01T20:09:05;99428.13;;;5.81;65.06
74973;BME280;63529;56.320;43.990;2023-04-01T20:12:24;99430.84;;;5.86;65.13
74973;BME280;63529;56.320;43.990;2023-04-01T20:14:56;99432.22;;;5.89;65.29
74973;BME280;63529;56.320;43.990;2023-04-01T20:27:50;99434.41;;;5.92;65.23
74973;BME280;63529;56.320;43.990;2023-04-01T20:33:20;99449.81;;;5.95;65.25
74973;BME280;63529;56.320;43.990;2023-04-01T20:50:04;99449.81;;;5.95;65.19
74973;BME280;63529;56.320;43.990;2023-04-01T20:57:59;99462.03;;;5.96;65.18
74973;BME280;63529;56.320;43.990;2023-04-01T21:06:03;99465.22;;;5.98;65.48
74973;BME280;63529;56.320;43.990;2023-04-01T21:08:53;99464.41;;;5.97;65.71
74973;BME280;63529;56.320;43.990;2023-04-01T21:17:04;99480.72;;;6.06;65.65
74973;BME280;63529;56.320;43.990;2023-04-01T21:22:20;99489.78;;;6.10;65.63
74973;BME280;63529;56.320;43.990;2023-04-01T21:25:00;99493.00;;;6.12;65.58
74973;BME280;63529;56.320;43.990;2023-04-01T21:55:41;99507.78;;;6.25;66.13
74973;BME280;63529;56.320;43.990;2023-04-01T22:09:18;99502.47;;;6.25;66.82
74973;BME280;63529;56.320;43.990;2023-04-01T22:12:00;99500.63;;;6.25;66.69
74973;BME280;63529;56.320;43.990;2023-04-01T22:17:32;99494.78;;;6.23;67.18
74973;BME280;63529;56.320;43.990;2023-04-01T22:28:21;99506.16;;;6.24;67.77
74973;BME280;63529;56.320;43.990;2023-04-01T22:30:52;99509.41;;;6.26;67.70
74973;BME280;63529;56.320;43.990;2023-04-01T22:33:51;99508.09;;;6.29;68.03
74973;BME280;63529;56.320;43.990;2023-04-01T22:39:36;99508.66;;;6.31;67.55
74973;BME280;63529;56.320;43.990;2023-04-01T22:47:40;99510.84;;;6.34;67.69
74973;BME280;63529;56.320;43.990;2023-04-01T22:50:20;99508.19;;;6.34;67.48
74973;BME280;63529;56.320;43.990;2023-04-01T22:52:51;99506.34;;;6.34;67.26
74973;BME280;63529;56.320;43.990;2023-04-01T22:55:23;99504.00;;;6.38;67.44
74973;BME280;63529;56.320;43.990;2023-04-01T22:58:18;99515.19;;;6.40;67.31
74973;BME280;63529;56.320;43.990;2023-04-01T23:00:55;99514.38;;;6.39;67.52
74973;BME280;63529;56.320;43.990;2023-04-01T23:03:26;99505.13;;;6.42;67.22
74973;BME280;63529;56.320;43.990;2023-04-01T23:05:59;99506.97;;;6.41;67.17
74973;BME280;63529;56.320;43.990;2023-04-01T23:09:01;99518.94;;;6.44;67.26
74973;BME280;63529;56.320;43.990;2023-04-01T23:11:57;99515.47;;;6.43;67.37
74973;BME280;63529;56.320;43.990;2023-04-01T23:19:39;99523.53;;;6.48;67.37
74973;BME280;63529;56.320;43.990;2023-04-01T23:27:30;99526.56;;;6.57;67.60
74973;BME280;63529;56.320;43.990;2023-04-01T23:29:57;99530.81;;;6.58;67.42
74973;BME280;63529;56.320;43.990;2023-04-01T23:32:24;99520.78;;;6.60;67.37
74973;BME280;63529;56.320;43.990;2023-04-01T23:34:55;99523.97;;;6.62;67.53
74973;BME280;63529;56.320;43.990;2023-04-01T23:37:22;99526.16;;;6.65;67.61
74973;BME280;63529;56.320;43.990;2023-04-01T23:39:51;99519.00;;;6.66;67.26
74973;BME280;63529;56.320;43.990;2023-04-01T23:42:21;99523.25;;;6.67;67.30
74973;BME280;63529;56.320;43.990;2023-04-01T23:44:49;99521.16;;;6.69;67.50
74973;BME280;63529;56.320;43.990;2023-04-01T23:47:20;99519.31;;;6.69;67.71
74973;BME280;63529;56.320;43.990;2023-04-01T23:49:56;99536.81;;;6.70;67.94
74973;BME280;63529;56.320;43.990;2023-04-01T23:52:25;99530.78;;;6.75;67.93
74973;BME280;63529;56.320;43.990;2023-04-01T23:55:01;99537.44;;;6.77;68.09
74973;BME280;63529;56.320;43.990;2023-04-01T23:57:32;99538.03;;;6.79;67.96
